sensor_id;sensor_type;location;lat;lon;timestamp;P1;durP1;ratioP1;P2;durP2;ratioP2
12587;SDS011;6359;51.450;7.346;2022-07-17T00:00:39;5.78;;;2.88;;
12587;SDS011;6359;51.450;7.346;2022-07-17T00:03:07;4.35;;;2.38;;
12587;SDS011;6359;51.450;7.346;2022-07-17T00:05:35;9.35;;;3.15;;
12587;SDS011;6359;51.450;7.346;2022-07-17T00:08:03;7.90;;;3.05;;
12587;SDS011;6359;51.450;7.346;2022-07-17T00:10:31;4.60;;;2.47;;
12587;SDS011;6359;51.450;7.346;2022-07-17T00:12:58;5.97;;;2.33;;
12587;SDS011;6359;51.450;7.346;2022-07-17T00:15:25;5.68;;;2.20;;
12587;SDS011;6359;51.450;7.346;2022-07-17T00:17:52;5.57;;;2.40;;
12587;SDS011;6359;51.450;7.346;2022-07-17T00:20:18;4.38;;;2.63;;
12587;SDS011;6359;51.450;7.346;2022-07-17T00:22:47;5.70;;;2.60;;
12587;SDS011;6359;51.450;7.346;2022-07-17T00:25:14;4.57;;;2.30;;
12587;SDS011;6359;51.450;7.346;2022-07-17T00:27:41;7.30;;;2.40;;
12587;SDS011;6359;51.450;7.346;2022-07-17T00:30:08;5.28;;;2.80;;
12587;SDS011;6359;51.450;7.346;2022-07-17T00:32:35;7.72;;;2.90;;
12587;SDS011;6359;51.450;7.346;2022-07-17T00:35:03;6.72;;;2.80;;
12587;SDS011;6359;51.450;7.346;2022-07-17T00:37:30;8.07;;;2.97;;
12587;SDS011;6359;51.450;7.346;2022-07-17T00:39:58;6.55;;;3.42;;
12587;SDS011;6359;51.450;7.346;2022-07-17T00:42:25;12.10;;;2.50;;
12587;SDS011;6359;51.450;7.346;2022-07-17T00:44:52;8.20;;;2.92;;
12587;SDS011;6359;51.450;7.346;2022-07-17T00:47:19;3.30;;;2.38;;
12587;SDS011;6359;51.450;7.346;2022-07-17T00:49:47;4.60;;;2.55;;
12587;SDS011;6359;51.450;7.346;2022-07-17T00:52:14;4.10;;;2.40;;
12587;SDS011;6359;51.450;7.346;2022-07-17T00:54:43;4.97;;;2.47;;
12587;SDS011;6359;51.450;7.346;2022-07-17T00:57:13;3.47;;;2.30;;
12587;SDS011;6359;51.450;7.346;2022-07-17T00:59:41;7.15;;;2.22;;
12587;SDS011;6359;51.450;7.346;2022-07-17T01:02:09;4.78;;;2.35;;
12587;SDS011;6359;51.450;7.346;2022-07-17T01:04:39;6.95;;;2.85;;
12587;SDS011;6359;51.450;7.346;2022-07-17T01:07:06;6.32;;;2.80;;
12587;SDS011;6359;51.450;7.346;2022-07-17T01:09:33;5.50;;;2.22;;
12587;SDS011;6359;51.450;7.346;2022-07-17T01:12:00;6.18;;;2.85;;
12587;SDS011;6359;51.450;7.346;2022-07-17T01:14:29;10.27;;;2.58;;
12587;SDS011;6359;51.450;7.346;2022-07-17T01:16:57;8.82;;;2.42;;
12587;SDS011;6359;51.450;7.346;2022-07-17T01:19:24;7.53;;;2.80;;
12587;SDS011;6359;51.450;7.346;2022-07-17T01:21:52;4.05;;;2.50;;
12587;SDS011;6359;51.450;7.346;2022-07-17T01:24:19;7.25;;;2.58;;
12587;SDS011;6359;51.450;7.346;2022-07-17T01:26:47;5.95;;;2.30;;
12587;SDS011;6359;51.450;7.346;2022-07-17T01:29:15;4.28;;;2.40;;
12587;SDS011;6359;51.450;7.346;2022-07-17T01:31:43;6.68;;;2.35;;
12587;SDS011;6359;51.450;7.346;2022-07-17T01:34:11;5.18;;;2.63;;
12587;SDS011;6359;51.450;7.346;2022-07-17T01:36:38;5.78;;;2.70;;
12587;SDS011;6359;51.450;7.346;2022-07-17T01:39:07;4.65;;;2.72;;
12587;SDS011;6359;51.450;7.346;2022-07-17T01:41:34;7.20;;;2.92;;
12587;SDS011;6359;51.450;7.346;2022-07-17T01:44:01;4.13;;;2.67;;
12587;SDS011;6359;51.450;7.346;2022-07-17T01:46:29;5.32;;;3.00;;
12587;SDS011;6359;51.450;7.346;2022-07-17T01:48:56;4.30;;;2.80;;
12587;SDS011;6359;51.450;7.346;2022-07-17T01:51:26;7.90;;;2.90;;
12587;SDS011;6359;51.450;7.346;2022-07-17T01:53:53;2.92;;;2.40;;
12587;SDS011;6359;51.450;7.346;2022-07-17T01:56:21;5.53;;;2.50;;
12587;SDS011;6359;51.450;7.346;2022-07-17T01:58:48;8.20;;;3.35;;
12587;SDS011;6359;51.450;7.346;2022-07-17T02:01:15;3.72;;;2.70;;
12587;SDS011;6359;51.450;7.346;2022-07-17T02:03:42;6.68;;;2.70;;
12587;SDS011;6359;51.450;7.346;2022-07-17T02:06:09;3.88;;;2.67;;
12587;SDS011;6359;51.450;7.346;2022-07-17T02:08:36;6.65;;;2.90;;
12587;SDS011;6359;51.450;7.346;2022-07-17T02:11:03;7.63;;;3.05;;
12587;SDS011;6359;51.450;7.346;2022-07-17T02:13:31;4.70;;;2.80;;
12587;SDS011;6359;51.450;7.346;2022-07-17T02:15:58;4.38;;;3.03;;
12587;SDS011;6359;51.450;7.346;2022-07-17T02:18:25;7.40;;;3.15;;
12587;SDS011;6359;51.450;7.346;2022-07-17T02:20:52;13.57;;;6.78;;
12587;SDS011;6359;51.450;7.346;2022-07-17T02:23:19;12.10;;;5.68;;
12587;SDS011;6359;51.450;7.346;2022-07-17T02:25:46;5.65;;;4.43;;
12587;SDS011;6359;51.450;7.346;2022-07-17T02:28:13;6.95;;;3.95;;
12587;SDS011;6359;51.450;7.346;2022-07-17T02:30:41;8.20;;;4.28;;
12587;SDS011;6359;51.450;7.346;2022-07-17T02:33:08;6.45;;;4.07;;
12587;SDS011;6359;51.450;7.346;2022-07-17T02:35:35;12.75;;;4.50;;
12587;SDS011;6359;51.450;7.346;2022-07-17T02:38:02;6.78;;;3.72;;
12587;SDS011;6359;51.450;7.346;2022-07-17T02:40:29;8.65;;;3.97;;
12587;SDS011;6359;51.450;7.346;2022-07-17T02:42:56;5.97;;;3.00;;
12587;SDS011;6359;51.450;7.346;2022-07-17T02:45:23;4.88;;;3.08;;
12587;SDS011;6359;51.450;7.346;2022-07-17T02:47:52;5.60;;;3.17;;
12587;SDS011;6359;51.450;7.346;2022-07-17T02:50:20;4.70;;;2.75;;
12587;SDS011;6359;51.450;7.346;2022-07-17T02:52:47;5.90;;;2.88;;
12587;SDS011;6359;51.450;7.346;2022-07-17T02:55:15;8.63;;;3.88;;
12587;SDS011;6359;51.450;7.346;2022-07-17T02:57:43;8.65;;;3.30;;
12587;SDS011;6359;51.450;7.346;2022-07-17T03:00:12;5.05;;;3.00;;
12587;SDS011;6359;51.450;7.346;2022-07-17T03:02:41;6.47;;;2.97;;
12587;SDS011;6359;51.450;7.346;2022-07-17T03:05:10;7.25;;;4.22;;
12587;SDS011;6359;51.450;7.346;2022-07-17T03:07:38;6.45;;;3.55;;
12587;SDS011;6359;51.450;7.346;2022-07-17T03:10:06;9.63;;;3.08;;
12587;SDS011;6359;51.450;7.346;2022-07-17T03:12:34;6.80;;;3.15;;
12587;SDS011;6359;51.450;7.346;2022-07-17T03:15:01;4.97;;;3.22;;
12587;SDS011;6359;51.450;7.346;2022-07-17T03:17:29;5.47;;;2.85;;
12587;SDS011;6359;51.450;7.346;2022-07-17T03:19:56;5.78;;;3.40;;
12587;SDS011;6359;51.450;7.346;2022-07-17T03:22:24;3.58;;;2.72;;
12587;SDS011;6359;51.450;7.346;2022-07-17T03:24:51;7.05;;;2.65;;
12587;SDS011;6359;51.450;7.346;2022-07-17T03:27:18;4.88;;;2.97;;
12587;SDS011;6359;51.450;7.346;2022-07-17T03:29:45;7.03;;;2.75;;
12587;SDS011;6359;51.450;7.346;2022-07-17T03:32:12;4.43;;;2.65;;
12587;SDS011;6359;51.450;7.346;2022-07-17T03:34:39;6.82;;;3.03;;
12587;SDS011;6359;51.450;7.346;2022-07-17T03:37:06;7.70;;;2.85;;
12587;SDS011;6359;51.450;7.346;2022-07-17T03:39:35;7.50;;;3.10;;
12587;SDS011;6359;51.450;7.346;2022-07-17T03:42:02;6.00;;;2.92;;
12587;SDS011;6359;51.450;7.346;2022-07-17T03:44:29;7.05;;;3.08;;
12587;SDS011;6359;51.450;7.346;2022-07-17T03:46:56;4.45;;;2.78;;
12587;SDS011;6359;51.450;7.346;2022-07-17T03:49:23;4.38;;;2.58;;
12587;SDS011;6359;51.450;7.346;2022-07-17T03:51:50;5.18;;;2.75;;
12587;SDS011;6359;51.450;7.346;2022-07-17T03:54:17;7.18;;;3.22;;
12587;SDS011;6359;51.450;7.346;2022-07-17T03:56:45;8.25;;;3.08;;
12587;SDS011;6359;51.450;7.346;2022-07-17T03:59:12;11.05;;;3.10;;
12587;SDS011;6359;51.450;7.346;2022-07-17T04:01:39;8.45;;;2.92;;
12587;SDS011;6359;51.450;7.346;2022-07-17T04:04:06;4.25;;;3.00;;
12587;SDS011;6359;51.450;7.346;2022-07-17T04:06:33;3.97;;;2.60;;
12587;SDS011;6359;51.450;7.346;2022-07-17T04:09:00;10.63;;;2.88;;
12587;SDS011;6359;51.450;7.346;2022-07-17T04:11:26;4.20;;;2.75;;
12587;SDS011;6359;51.450;7.346;2022-07-17T04:13:55;6.25;;;2.72;;
12587;SDS011;6359;51.450;7.346;2022-07-17T04:16:22;8.00;;;3.28;;
12587;SDS011;6359;51.450;7.346;2022-07-17T04:18:49;6.80;;;3.00;;
12587;SDS011;6359;51.450;7.346;2022-07-17T04:21:15;7.93;;;2.88;;
12587;SDS011;6359;51.450;7.346;2022-07-17T04:23:42;3.67;;;2.42;;
12587;SDS011;6359;51.450;7.346;2022-07-17T04:26:09;4.75;;;2.80;;
12587;SDS011;6359;51.450;7.346;2022-07-17T04:28:36;6.15;;;3.55;;
12587;SDS011;6359;51.450;7.346;2022-07-17T04:31:05;6.00;;;2.70;;
12587;SDS011;6359;51.450;7.346;2022-07-17T04:33:32;7.72;;;2.92;;
12587;SDS011;6359;51.450;7.346;2022-07-17T04:35:59;11.15;;;2.85;;
12587;SDS011;6359;51.450;7.346;2022-07-17T04:38:26;9.40;;;2.80;;
12587;SDS011;6359;51.450;7.346;2022-07-17T04:40:53;4.43;;;2.85;;
12587;SDS011;6359;51.450;7.346;2022-07-17T04:43:20;8.45;;;2.30;;
12587;SDS011;6359;51.450;7.346;2022-07-17T04:45:47;7.50;;;2.70;;
12587;SDS011;6359;51.450;7.346;2022-07-17T04:48:15;7.32;;;2.80;;
12587;SDS011;6359;51.450;7.346;2022-07-17T04:50:42;3.97;;;2.75;;
12587;SDS011;6359;51.450;7.346;2022-07-17T04:53:09;6.13;;;3.00;;
12587;SDS011;6359;51.450;7.346;2022-07-17T04:55:36;7.28;;;2.80;;
12587;SDS011;6359;51.450;7.346;2022-07-17T04:58:03;4.32;;;2.65;;
12587;SDS011;6359;51.450;7.346;2022-07-17T05:00:29;5.95;;;2.65;;
12587;SDS011;6359;51.450;7.346;2022-07-17T05:02:56;4.32;;;2.70;;
12587;SDS011;6359;51.450;7.346;2022-07-17T05:05:25;7.65;;;2.65;;
12587;SDS011;6359;51.450;7.346;2022-07-17T05:07:51;3.40;;;2.38;;
12587;SDS011;6359;51.450;7.346;2022-07-17T05:10:18;3.80;;;2.20;;
12587;SDS011;6359;51.450;7.346;2022-07-17T05:12:45;4.22;;;2.40;;
12587;SDS011;6359;51.450;7.346;2022-07-17T05:15:12;5.57;;;2.67;;
12587;SDS011;6359;51.450;7.346;2022-07-17T05:17:39;6.13;;;2.53;;
12587;SDS011;6359;51.450;7.346;2022-07-17T05:20:07;4.30;;;2.83;;
12587;SDS011;6359;51.450;7.346;2022-07-17T05:22:35;4.05;;;2.85;;
12587;SDS011;6359;51.450;7.346;2022-07-17T05:25:02;9.10;;;2.50;;
12587;SDS011;6359;51.450;7.346;2022-07-17T05:27:30;6.05;;;2.40;;
12587;SDS011;6359;51.450;7.346;2022-07-17T05:29:56;8.40;;;2.33;;
12587;SDS011;6359;51.450;7.346;2022-07-17T05:32:23;4.88;;;2.40;;
12587;SDS011;6359;51.450;7.346;2022-07-17T05:34:50;4.60;;;1.95;;
12587;SDS011;6359;51.450;7.346;2022-07-17T05:37:17;7.43;;;2.65;;
12587;SDS011;6359;51.450;7.346;2022-07-17T05:39:46;5.15;;;1.98;;
12587;SDS011;6359;51.450;7.346;2022-07-17T05:42:12;2.85;;;1.50;;
12587;SDS011;6359;51.450;7.346;2022-07-17T05:44:39;4.45;;;1.92;;
12587;SDS011;6359;51.450;7.346;2022-07-17T05:47:06;4.55;;;1.75;;
12587;SDS011;6359;51.450;7.346;2022-07-17T05:49:33;9.95;;;2.35;;
12587;SDS011;6359;51.450;7.346;2022-07-17T05:52:00;2.75;;;1.77;;
12587;SDS011;6359;51.450;7.346;2022-07-17T05:54:27;4.90;;;1.70;;
12587;SDS011;6359;51.450;7.346;2022-07-17T05:56:56;5.60;;;2.00;;
12587;SDS011;6359;51.450;7.346;2022-07-17T05:59:23;5.28;;;2.08;;
12587;SDS011;6359;51.450;7.346;2022-07-17T06:01:50;9.63;;;2.20;;
12587;SDS011;6359;51.450;7.346;2022-07-17T06:04:17;3.38;;;1.67;;
12587;SDS011;6359;51.450;7.346;2022-07-17T06:06:43;5.57;;;2.13;;
12587;SDS011;6359;51.450;7.346;2022-07-17T06:09:10;2.92;;;1.73;;
12587;SDS011;6359;51.450;7.346;2022-07-17T06:11:37;3.90;;;1.95;;
12587;SDS011;6359;51.450;7.346;2022-07-17T06:14:06;6.75;;;2.17;;
12587;SDS011;6359;51.450;7.346;2022-07-17T06:16:32;6.15;;;2.05;;
12587;SDS011;6359;51.450;7.346;2022-07-17T06:18:59;6.10;;;2.00;;
12587;SDS011;6359;51.450;7.346;2022-07-17T06:21:26;4.60;;;1.70;;
12587;SDS011;6359;51.450;7.346;2022-07-17T06:23:53;10.93;;;2.05;;
12587;SDS011;6359;51.450;7.346;2022-07-17T06:26:20;10.10;;;2.30;;
12587;SDS011;6359;51.450;7.346;2022-07-17T06:28:47;5.30;;;1.83;;
12587;SDS011;6359;51.450;7.346;2022-07-17T06:31:16;5.55;;;2.00;;
12587;SDS011;6359;51.450;7.346;2022-07-17T06:33:43;4.07;;;1.85;;
12587;SDS011;6359;51.450;7.346;2022-07-17T06:36:10;3.90;;;1.95;;
12587;SDS011;6359;51.450;7.346;2022-07-17T06:38:37;7.68;;;2.08;;
12587;SDS011;6359;51.450;7.346;2022-07-17T06:41:03;2.97;;;1.50;;
12587;SDS011;6359;51.450;7.346;2022-07-17T06:43:30;5.80;;;1.75;;
12587;SDS011;6359;51.450;7.346;2022-07-17T06:45:57;3.78;;;1.52;;
12587;SDS011;6359;51.450;7.346;2022-07-17T06:48:26;5.80;;;1.95;;
12587;SDS011;6359;51.450;7.346;2022-07-17T06:50:52;5.18;;;1.65;;
12587;SDS011;6359;51.450;7.346;2022-07-17T06:53:19;3.85;;;1.63;;
12587;SDS011;6359;51.450;7.346;2022-07-17T06:55:47;4.38;;;1.80;;
12587;SDS011;6359;51.450;7.346;2022-07-17T06:58:13;2.03;;;1.40;;
12587;SDS011;6359;51.450;7.346;2022-07-17T07:00:40;7.18;;;1.67;;
12587;SDS011;6359;51.450;7.346;2022-07-17T07:03:07;4.63;;;1.40;;
12587;SDS011;6359;51.450;7.346;2022-07-17T07:05:35;2.83;;;1.88;;
12587;SDS011;6359;51.450;7.346;2022-07-17T07:08:03;3.58;;;1.52;;
12587;SDS011;6359;51.450;7.346;2022-07-17T07:10:30;5.80;;;1.77;;
12587;SDS011;6359;51.450;7.346;2022-07-17T07:12:57;5.97;;;1.67;;
12587;SDS011;6359;51.450;7.346;2022-07-17T07:15:24;3.10;;;1.40;;
12587;SDS011;6359;51.450;7.346;2022-07-17T07:17:51;3.10;;;1.42;;
12587;SDS011;6359;51.450;7.346;2022-07-17T07:20:18;4.80;;;1.52;;
12587;SDS011;6359;51.450;7.346;2022-07-17T07:22:46;3.80;;;1.67;;
12587;SDS011;6359;51.450;7.346;2022-07-17T07:25:13;2.10;;;1.20;;
12587;SDS011;6359;51.450;7.346;2022-07-17T07:27:40;4.78;;;1.52;;
12587;SDS011;6359;51.450;7.346;2022-07-17T07:30:08;2.67;;;1.70;;
12587;SDS011;6359;51.450;7.346;2022-07-17T07:32:35;1.88;;;1.08;;
12587;SDS011;6359;51.450;7.346;2022-07-17T07:35:03;3.72;;;1.50;;
12587;SDS011;6359;51.450;7.346;2022-07-17T07:37:31;3.97;;;1.20;;
12587;SDS011;6359;51.450;7.346;2022-07-17T07:39:59;5.63;;;1.50;;
12587;SDS011;6359;51.450;7.346;2022-07-17T07:42:27;2.95;;;1.50;;
12587;SDS011;6359;51.450;7.346;2022-07-17T07:44:54;3.85;;;1.33;;
12587;SDS011;6359;51.450;7.346;2022-07-17T07:47:21;2.55;;;1.38;;
12587;SDS011;6359;51.450;7.346;2022-07-17T07:49:48;4.57;;;1.67;;
12587;SDS011;6359;51.450;7.346;2022-07-17T07:52:15;4.88;;;1.58;;
12587;SDS011;6359;51.450;7.346;2022-07-17T07:54:42;4.28;;;1.40;;
12587;SDS011;6359;51.450;7.346;2022-07-17T07:57:10;2.47;;;1.30;;
12587;SDS011;6359;51.450;7.346;2022-07-17T07:59:37;7.25;;;1.70;;
12587;SDS011;6359;51.450;7.346;2022-07-17T08:02:04;4.30;;;1.33;;
12587;SDS011;6359;51.450;7.346;2022-07-17T08:04:31;1.88;;;1.20;;
12587;SDS011;6359;51.450;7.346;2022-07-17T08:06:58;4.20;;;1.50;;
12587;SDS011;6359;51.450;7.346;2022-07-17T08:09:25;6.80;;;1.58;;
12587;SDS011;6359;51.450;7.346;2022-07-17T08:11:52;3.95;;;1.45;;
12587;SDS011;6359;51.450;7.346;2022-07-17T08:14:20;2.17;;;1.15;;
12587;SDS011;6359;51.450;7.346;2022-07-17T08:16:47;1.88;;;1.23;;
12587;SDS011;6359;51.450;7.346;2022-07-17T08:19:14;9.77;;;1.42;;
12587;SDS011;6359;51.450;7.346;2022-07-17T08:21:41;5.43;;;1.50;;
12587;SDS011;6359;51.450;7.346;2022-07-17T08:24:08;4.15;;;1.17;;
12587;SDS011;6359;51.450;7.346;2022-07-17T08:26:35;3.08;;;1.00;;
12587;SDS011;6359;51.450;7.346;2022-07-17T08:29:02;3.60;;;1.40;;
12587;SDS011;6359;51.450;7.346;2022-07-17T08:31:30;5.85;;;1.58;;
12587;SDS011;6359;51.450;7.346;2022-07-17T08:33:57;3.08;;;1.30;;
12587;SDS011;6359;51.450;7.346;2022-07-17T08:36:24;3.40;;;1.13;;
12587;SDS011;6359;51.450;7.346;2022-07-17T08:38:51;5.63;;;1.48;;
12587;SDS011;6359;51.450;7.346;2022-07-17T08:41:18;2.80;;;1.17;;
12587;SDS011;6359;51.450;7.346;2022-07-17T08:43:48;5.82;;;1.38;;
12587;SDS011;6359;51.450;7.346;2022-07-17T08:46:19;2.75;;;1.20;;
12587;SDS011;6359;51.450;7.346;2022-07-17T08:48:56;5.38;;;1.60;;
12587;SDS011;6359;51.450;7.346;2022-07-17T08:51:24;4.97;;;1.58;;
12587;SDS011;6359;51.450;7.346;2022-07-17T08:53:52;5.28;;;1.67;;
12587;SDS011;6359;51.450;7.346;2022-07-17T08:56:22;6.88;;;1.40;;
12587;SDS011;6359;51.450;7.346;2022-07-17T08:58:49;4.35;;;1.30;;
12587;SDS011;6359;51.450;7.346;2022-07-17T09:01:17;4.18;;;1.10;;
12587;SDS011;6359;51.450;7.346;2022-07-17T09:03:52;6.63;;;1.58;;
12587;SDS011;6359;51.450;7.346;2022-07-17T09:06:22;5.63;;;1.50;;
12587;SDS011;6359;51.450;7.346;2022-07-17T09:08:59;6.30;;;1.35;;
12587;SDS011;6359;51.450;7.346;2022-07-17T09:11:28;3.92;;;1.33;;
12587;SDS011;6359;51.450;7.346;2022-07-17T09:14:08;4.53;;;1.25;;
12587;SDS011;6359;51.450;7.346;2022-07-17T09:16:35;3.80;;;1.20;;
12587;SDS011;6359;51.450;7.346;2022-07-17T09:19:03;6.35;;;1.88;;
12587;SDS011;6359;51.450;7.346;2022-07-17T09:21:30;2.58;;;1.27;;
12587;SDS011;6359;51.450;7.346;2022-07-17T09:24:03;4.03;;;1.10;;
12587;SDS011;6359;51.450;7.346;2022-07-17T09:26:32;4.50;;;1.60;;
12587;SDS011;6359;51.450;7.346;2022-07-17T09:29:00;1.75;;;1.05;;
12587;SDS011;6359;51.450;7.346;2022-07-17T09:31:28;5.32;;;1.60;;
12587;SDS011;6359;51.450;7.346;2022-07-17T09:33:56;3.75;;;1.30;;
12587;SDS011;6359;51.450;7.346;2022-07-17T09:36:25;3.17;;;1.20;;
12587;SDS011;6359;51.450;7.346;2022-07-17T09:38:53;3.17;;;1.38;;
12587;SDS011;6359;51.450;7.346;2022-07-17T09:41:22;1.75;;;1.50;;
12587;SDS011;6359;51.450;7.346;2022-07-17T09:43:52;4.47;;;1.58;;
12587;SDS011;6359;51.450;7.346;2022-07-17T09:46:20;3.90;;;1.17;;
12587;SDS011;6359;51.450;7.346;2022-07-17T09:48:49;10.57;;;1.40;;
12587;SDS011;6359;51.450;7.346;2022-07-17T09:51:18;5.18;;;1.10;;
12587;SDS011;6359;51.450;7.346;2022-07-17T09:53:48;3.53;;;1.30;;
12587;SDS011;6359;51.450;7.346;2022-07-17T09:56:17;3.05;;;1.20;;
12587;SDS011;6359;51.450;7.346;2022-07-17T09:58:46;2.72;;;1.48;;
12587;SDS011;6359;51.450;7.346;2022-07-17T10:01:15;3.30;;;1.45;;
12587;SDS011;6359;51.450;7.346;2022-07-17T10:03:42;2.47;;;1.33;;
12587;SDS011;6359;51.450;7.346;2022-07-17T10:06:09;5.22;;;1.73;;
12587;SDS011;6359;51.450;7.346;2022-07-17T10:08:37;3.78;;;1.25;;
12587;SDS011;6359;51.450;7.346;2022-07-17T10:11:06;3.22;;;1.30;;
12587;SDS011;6359;51.450;7.346;2022-07-17T10:13:35;3.65;;;1.15;;
12587;SDS011;6359;51.450;7.346;2022-07-17T10:16:02;4.75;;;1.40;;
12587;SDS011;6359;51.450;7.346;2022-07-17T10:18:34;8.68;;;1.50;;
12587;SDS011;6359;51.450;7.346;2022-07-17T10:21:11;3.90;;;1.23;;
12587;SDS011;6359;51.450;7.346;2022-07-17T10:23:40;4.88;;;2.20;;
12587;SDS011;6359;51.450;7.346;2022-07-17T10:26:09;3.58;;;1.70;;
12587;SDS011;6359;51.450;7.346;2022-07-17T10:28:46;4.00;;;1.52;;
12587;SDS011;6359;51.450;7.346;2022-07-17T10:31:23;4.50;;;2.03;;
12587;SDS011;6359;51.450;7.346;2022-07-17T10:33:54;2.42;;;1.20;;
12587;SDS011;6359;51.450;7.346;2022-07-17T10:36:31;5.47;;;1.15;;
12587;SDS011;6359;51.450;7.346;2022-07-17T10:39:09;3.40;;;1.20;;
12587;SDS011;6359;51.450;7.346;2022-07-17T10:41:38;2.40;;;1.25;;
12587;SDS011;6359;51.450;7.346;2022-07-17T10:44:05;5.28;;;1.08;;
12587;SDS011;6359;51.450;7.346;2022-07-17T10:46:32;3.35;;;1.23;;
12587;SDS011;6359;51.450;7.346;2022-07-17T10:49:00;4.38;;;1.70;;
12587;SDS011;6359;51.450;7.346;2022-07-17T10:51:28;2.45;;;1.40;;
12587;SDS011;6359;51.450;7.346;2022-07-17T10:53:56;4.30;;;1.17;;
12587;SDS011;6359;51.450;7.346;2022-07-17T10:56:25;10.65;;;1.95;;
12587;SDS011;6359;51.450;7.346;2022-07-17T10:59:00;11.13;;;1.60;;
12587;SDS011;6359;51.450;7.346;2022-07-17T11:01:28;4.93;;;1.42;;
12587;SDS011;6359;51.450;7.346;2022-07-17T11:03:56;4.78;;;1.40;;
12587;SDS011;6359;51.450;7.346;2022-07-17T11:06:25;4.00;;;1.48;;
12587;SDS011;6359;51.450;7.346;2022-07-17T11:08:55;6.40;;;1.95;;
12587;SDS011;6359;51.450;7.346;2022-07-17T11:11:33;3.92;;;1.30;;
12587;SDS011;6359;51.450;7.346;2022-07-17T11:14:13;3.75;;;1.33;;
12587;SDS011;6359;51.450;7.346;2022-07-17T11:16:45;3.65;;;1.73;;
12587;SDS011;6359;51.450;7.346;2022-07-17T11:19:20;7.05;;;1.63;;
12587;SDS011;6359;51.450;7.346;2022-07-17T11:21:48;4.30;;;1.85;;
12587;SDS011;6359;51.450;7.346;2022-07-17T11:24:16;2.72;;;1.20;;
12587;SDS011;6359;51.450;7.346;2022-07-17T11:26:44;3.63;;;1.33;;
12587;SDS011;6359;51.450;7.346;2022-07-17T11:29:12;2.95;;;1.33;;
12587;SDS011;6359;51.450;7.346;2022-07-17T11:31:40;3.92;;;1.38;;
12587;SDS011;6359;51.450;7.346;2022-07-17T11:34:08;4.00;;;1.40;;
12587;SDS011;6359;51.450;7.346;2022-07-17T11:36:37;3.08;;;1.50;;
12587;SDS011;6359;51.450;7.346;2022-07-17T11:39:05;6.72;;;1.75;;
12587;SDS011;6359;51.450;7.346;2022-07-17T11:41:36;5.65;;;1.50;;
12587;SDS011;6359;51.450;7.346;2022-07-17T11:44:04;4.60;;;1.13;;
12587;SDS011;6359;51.450;7.346;2022-07-17T11:46:34;4.47;;;1.60;;
12587;SDS011;6359;51.450;7.346;2022-07-17T11:49:02;7.65;;;2.08;;
12587;SDS011;6359;51.450;7.346;2022-07-17T11:51:35;4.03;;;1.70;;
12587;SDS011;6359;51.450;7.346;2022-07-17T11:54:04;4.45;;;1.73;;
12587;SDS011;6359;51.450;7.346;2022-07-17T11:56:32;3.33;;;1.60;;
12587;SDS011;6359;51.450;7.346;2022-07-17T11:58:59;4.32;;;2.22;;
12587;SDS011;6359;51.450;7.346;2022-07-17T12:01:28;4.68;;;1.88;;
12587;SDS011;6359;51.450;7.346;2022-07-17T12:03:58;3.85;;;1.48;;
12587;SDS011;6359;51.450;7.346;2022-07-17T12:06:25;4.88;;;1.75;;
12587;SDS011;6359;51.450;7.346;2022-07-17T12:08:53;3.92;;;1.50;;
12587;SDS011;6359;51.450;7.346;2022-07-17T12:11:20;3.35;;;1.70;;
12587;SDS011;6359;51.450;7.346;2022-07-17T12:13:47;5.13;;;1.60;;
12587;SDS011;6359;51.450;7.346;2022-07-17T12:16:19;6.40;;;1.48;;
12587;SDS011;6359;51.450;7.346;2022-07-17T12:18:54;5.90;;;1.40;;
12587;SDS011;6359;51.450;7.346;2022-07-17T12:21:24;6.15;;;1.50;;
12587;SDS011;6359;51.450;7.346;2022-07-17T12:23:56;5.32;;;1.20;;
12587;SDS011;6359;51.450;7.346;2022-07-17T12:26:24;4.55;;;1.70;;
12587;SDS011;6359;51.450;7.346;2022-07-17T12:28:51;3.25;;;1.20;;
12587;SDS011;6359;51.450;7.346;2022-07-17T12:31:18;2.92;;;1.13;;
12587;SDS011;6359;51.450;7.346;2022-07-17T12:33:46;1.83;;;1.13;;
12587;SDS011;6359;51.450;7.346;2022-07-17T12:36:22;6.57;;;1.45;;
12587;SDS011;6359;51.450;7.346;2022-07-17T12:38:49;9.25;;;1.30;;
12587;SDS011;6359;51.450;7.346;2022-07-17T12:41:16;3.50;;;1.40;;
12587;SDS011;6359;51.450;7.346;2022-07-17T12:43:43;2.95;;;1.30;;
12587;SDS011;6359;51.450;7.346;2022-07-17T12:46:19;1.83;;;0.95;;
12587;SDS011;6359;51.450;7.346;2022-07-17T12:48:46;3.42;;;1.42;;
12587;SDS011;6359;51.450;7.346;2022-07-17T12:51:14;5.00;;;1.42;;
12587;SDS011;6359;51.450;7.346;2022-07-17T12:53:43;5.00;;;1.85;;
12587;SDS011;6359;51.450;7.346;2022-07-17T12:56:10;7.40;;;1.40;;
12587;SDS011;6359;51.450;7.346;2022-07-17T12:58:37;9.52;;;2.80;;
12587;SDS011;6359;51.450;7.346;2022-07-17T13:01:05;4.53;;;2.30;;
12587;SDS011;6359;51.450;7.346;2022-07-17T13:03:32;8.52;;;1.70;;
12587;SDS011;6359;51.450;7.346;2022-07-17T13:06:01;5.32;;;1.50;;
12587;SDS011;6359;51.450;7.346;2022-07-17T13:08:35;3.05;;;1.40;;
12587;SDS011;6359;51.450;7.346;2022-07-17T13:11:03;2.42;;;1.10;;
12587;SDS011;6359;51.450;7.346;2022-07-17T13:13:30;1.80;;;1.05;;
12587;SDS011;6359;51.450;7.346;2022-07-17T13:15:57;3.22;;;1.90;;
12587;SDS011;6359;51.450;7.346;2022-07-17T13:18:24;3.55;;;1.80;;
12587;SDS011;6359;51.450;7.346;2022-07-17T13:20:51;7.03;;;2.35;;
12587;SDS011;6359;51.450;7.346;2022-07-17T13:23:18;2.15;;;1.15;;
12587;SDS011;6359;51.450;7.346;2022-07-17T13:25:46;2.40;;;1.52;;
12587;SDS011;6359;51.450;7.346;2022-07-17T13:28:13;5.43;;;1.55;;
12587;SDS011;6359;51.450;7.346;2022-07-17T13:30:40;3.08;;;1.75;;
12587;SDS011;6359;51.450;7.346;2022-07-17T13:33:07;4.80;;;1.48;;
12587;SDS011;6359;51.450;7.346;2022-07-17T13:35:34;4.50;;;1.45;;
12587;SDS011;6359;51.450;7.346;2022-07-17T13:38:02;3.17;;;1.23;;
12587;SDS011;6359;51.450;7.346;2022-07-17T13:40:30;5.10;;;1.30;;
12587;SDS011;6359;51.450;7.346;2022-07-17T13:42:58;2.95;;;1.33;;
12587;SDS011;6359;51.450;7.346;2022-07-17T13:45:25;2.58;;;1.40;;
12587;SDS011;6359;51.450;7.346;2022-07-17T13:47:52;4.10;;;1.23;;
12587;SDS011;6359;51.450;7.346;2022-07-17T13:50:19;4.90;;;1.30;;
12587;SDS011;6359;51.450;7.346;2022-07-17T13:52:46;2.80;;;1.17;;
12587;SDS011;6359;51.450;7.346;2022-07-17T13:55:13;4.25;;;1.58;;
12587;SDS011;6359;51.450;7.346;2022-07-17T13:57:40;2.33;;;1.33;;
12587;SDS011;6359;51.450;7.346;2022-07-17T14:00:09;5.25;;;1.40;;
12587;SDS011;6359;51.450;7.346;2022-07-17T14:02:37;4.18;;;1.38;;
12587;SDS011;6359;51.450;7.346;2022-07-17T14:05:05;4.97;;;1.77;;
12587;SDS011;6359;51.450;7.346;2022-07-17T14:07:33;5.45;;;1.83;;
12587;SDS011;6359;51.450;7.346;2022-07-17T14:10:00;3.53;;;1.80;;
12587;SDS011;6359;51.450;7.346;2022-07-17T14:12:28;5.72;;;1.40;;
12587;SDS011;6359;51.450;7.346;2022-07-17T14:14:55;2.40;;;1.13;;
12587;SDS011;6359;51.450;7.346;2022-07-17T14:17:23;3.00;;;1.65;;
12587;SDS011;6359;51.450;7.346;2022-07-17T14:19:50;5.20;;;1.30;;
12587;SDS011;6359;51.450;7.346;2022-07-17T14:22:17;3.85;;;1.42;;
12587;SDS011;6359;51.450;7.346;2022-07-17T14:24:44;3.03;;;1.35;;
12587;SDS011;6359;51.450;7.346;2022-07-17T14:27:10;2.63;;;1.40;;
12587;SDS011;6359;51.450;7.346;2022-07-17T14:29:37;1.83;;;1.05;;
12587;SDS011;6359;51.450;7.346;2022-07-17T14:32:05;2.10;;;1.08;;
12587;SDS011;6359;51.450;7.346;2022-07-17T14:34:33;2.53;;;1.38;;
12587;SDS011;6359;51.450;7.346;2022-07-17T14:37:00;3.97;;;1.33;;
12587;SDS011;6359;51.450;7.346;2022-07-17T14:39:31;5.05;;;1.33;;
12587;SDS011;6359;51.450;7.346;2022-07-17T14:41:58;3.25;;;1.15;;
12587;SDS011;6359;51.450;7.346;2022-07-17T14:44:25;6.13;;;1.15;;
12587;SDS011;6359;51.450;7.346;2022-07-17T14:46:55;5.47;;;2.47;;
12587;SDS011;6359;51.450;7.346;2022-07-17T14:49:23;6.60;;;1.20;;
12587;SDS011;6359;51.450;7.346;2022-07-17T14:51:52;3.95;;;1.45;;
12587;SDS011;6359;51.450;7.346;2022-07-17T14:54:19;5.75;;;1.92;;
12587;SDS011;6359;51.450;7.346;2022-07-17T14:56:46;1.35;;;1.02;;
12587;SDS011;6359;51.450;7.346;2022-07-17T14:59:13;8.20;;;1.20;;
12587;SDS011;6359;51.450;7.346;2022-07-17T15:01:40;5.32;;;1.83;;
12587;SDS011;6359;51.450;7.346;2022-07-17T15:04:07;4.90;;;1.45;;